Time;durP1;ratioP1;P1;durP2;ratioP2;P2;SDS_P1;SDS_P2;PMS_P1;PMS_P2;Temp;Humidity;BMP_temperature;BMP_pressure;BME280_temperature;BME280_humidity;BME280_pressure;Samples;Min_cycle;Max_cycle;Signal;HPM_P1;HPM_P2
2021/03/08 00:04:12;;;;;;;6.47;2.97;;;;;;;0.51;77.34;100815.41;5013076;57;1134721;-83
2021/03/08 00:09:17;;;;;;;7.60;2.60;;;;;;;0.57;77.60;100821.73;5012987;57;1134739;-81
2021/03/08 00:14:23;;;;;;;9.87;3.70;;;;;;;0.67;77.41;100828.34;5013146;57;1134601;-84
2021/03/08 00:19:28;;;;;;;6.00;3.03;;;;;;;0.73;77.10;100833.81;5013088;57;1134659;-82
2021/03/08 00:24:34;;;;;;;6.77;2.80;;;;;;;0.67;76.40;100833.55;5013351;57;1134803;-81
2021/03/08 00:29:40;;;;;;;9.08;3.90;;;;;;;0.48;76.06;100838.47;5012917;57;1134699;-82
2021/03/08 00:34:46;;;;;;;8.87;3.10;;;;;;;0.39;76.81;100840.06;5013315;57;1134751;-82
2021/03/08 00:39:51;;;;;;;9.83;3.63;;;;;;;0.39;76.81;100840.06;5132467;56;1134999;-81
2021/03/08 00:44:57;;;;;;;5.40;2.50;;;;;;;0.49;76.68;100846.68;5148177;56;1134951;-81
2021/03/08 00:50:04;;;;;;;12.60;5.53;;;;;;;0.53;76.60;100848.74;5025262;56;1134932;-80
2021/03/08 00:55:14;;;;;;;9.73;3.00;;;;;;;0.46;75.69;100846.77;5096332;56;1137026;-83
2021/03/08 01:00:24;;;;;;;15.33;4.23;;;;;;;0.39;75.88;100844.42;5096557;56;1134740;-85
2021/03/08 01:05:30;;;;;;;15.93;7.93;;;;;;;0.37;75.92;100843.61;5096404;56;1136834;-81
2021/03/08 01:10:38;;;;;;;22.10;7.27;;;;;;;0.34;75.79;100840.64;5096225;56;1145654;-81
2021/03/08 01:15:45;;;;;;;15.77;7.43;;;;;;;0.32;75.60;100839.84;5095868;56;1137021;-81
2021/03/08 01:20:51;;;;;;;18.17;8.33;;;;;;;0.24;75.41;100834.03;5096372;56;1136952;-78
2021/03/08 01:25:57;;;;;;;20.07;8.77;;;;;;;0.22;75.50;100831.92;5096032;56;1136253;-80
2021/03/08 01:31:02;;;;;;;22.47;9.90;;;;;;;0.21;75.55;100838.02;5096225;56;1136297;-83
2021/03/08 01:36:08;;;;;;;24.10;7.67;;;;;;;0.20;75.28;100837.61;5096237;56;1136425;-80
2021/03/08 01:41:15;;;;;;;12.00;5.80;;;;;;;0.12;75.00;100844.80;5068845;56;1136492;-81
2021/03/08 01:46:21;;;;;;;17.30;7.07;;;;;;;0.11;75.21;100845.70;5062833;57;1136457;-84
2021/03/08 01:51:27;;;;;;;16.62;7.00;;;;;;;0.11;75.32;100851.75;5062702;57;1136426;-83
2021/03/08 01:56:33;;;;;;;11.60;5.57;;;;;;;0.11;75.36;100853.05;5062844;57;1136669;-81
2021/03/08 02:01:39;;;;;;;13.50;6.70;;;;;;;0.12;75.04;100853.91;5062843;57;1136833;-83
2021/03/08 02:06:44;;;;;;;19.37;8.03;;;;;;;0.10;74.96;100853.09;5062910;57;1136669;-83
2021/03/08 02:11:57;;;;;;;21.52;7.62;;;;;;;0.07;74.91;100855.33;5062750;57;1136622;-83
2021/03/08 02:17:13;;;;;;;30.82;11.90;;;;;;;0.06;74.74;100863.17;5062980;57;1136537;-80
2021/03/08 02:22:45;;;;;;;31.50;11.90;;;;;;;0.00;74.52;100862.44;5062799;57;1138588;-80
2021/03/08 02:28:32;;;;;;;36.63;13.15;;;;;;;-0.06;74.37;100861.78;4818941;60;1138538;-80
2021/03/08 02:33:41;;;;;;;35.00;13.60;;;;;;;-0.12;74.13;100870.59;4819016;60;1141416;-81
2021/03/08 02:38:52;;;;;;;28.02;11.80;;;;;;;-0.26;73.35;100878.38;4819424;60;1140682;-78
2021/03/08 02:44:05;;;;;;;21.53;8.67;;;;;;;-0.37;73.60;100878.67;4840840;60;1140738;-78
2021/03/08 02:49:20;;;;;;;18.87;8.15;;;;;;;-0.52;73.10;100882.98;4840582;60;1139042;-77
2021/03/08 02:54:30;;;;;;;19.40;7.00;;;;;;;-0.72;73.26;100890.84;4841216;60;1139075;-78
2021/03/08 02:59:46;;;;;;;15.85;6.28;;;;;;;-0.85;73.19;100898.53;4842488;60;1139033;-81
2021/03/08 03:04:53;;;;;;;27.85;8.05;;;;;;;-1.07;72.98;100892.99;4974088;57;1138926;-82
2021/03/08 03:10:00;;;;;;;20.60;7.53;;;;;;;-1.15;73.68;100907.91;5086727;57;1138968;-79
2021/03/08 03:15:10;;;;;;;18.20;6.33;;;;;;;-1.08;74.20;100906.04;5087007;57;1138951;-78
2021/03/08 03:20:18;;;;;;;12.40;6.30;;;;;;;-0.97;74.34;100910.52;5086488;57;1138973;-78
2021/03/08 03:25:26;;;;;;;16.07;7.43;;;;;;;-0.91;74.06;100910.80;5089900;57;1138932;-76
2021/03/08 03:30:34;;;;;;;15.80;6.93;;;;;;;-0.90;73.96;100921.14;5086841;57;1139304;-81
2021/03/08 03:35:40;;;;;;;18.40;7.77;;;;;;;-0.85;73.83;100927.53;5087058;57;1139155;-79
2021/03/08 03:40:45;;;;;;;21.75;8.00;;;;;;;-0.86;73.68;100922.78;5091443;56;1139108;-79
2021/03/08 03:45:51;;;;;;;19.90;7.55;;;;;;;-0.87;73.45;100928.87;5141001;56;1138992;-78
2021/03/08 03:50:57;;;;;;;18.93;7.83;;;;;;;-0.89;73.15;100936.28;5141451;56;1138675;-80
2021/03/08 03:56:02;;;;;;;16.73;7.17;;;;;;;-0.94;72.92;100937.71;5141179;56;1138900;-75
2021/03/08 04:01:21;;;;;;;13.23;6.13;;;;;;;-1.03;72.34;100944.40;5140890;56;1138674;-80
2021/03/08 04:06:37;;;;;;;12.83;6.63;;;;;;;-1.24;71.95;100951.39;5141151;56;1138616;-81
2021/03/08 04:11:43;;;;;;;16.93;6.60;;;;;;;-1.54;71.70;100956.36;5140894;56;1138468;-80
2021/03/08 04:16:54;;;;;;;12.03;6.30;;;;;;;-1.69;71.84;100963.61;5140877;56;1139095;-83
2021/03/08 04:22:06;;;;;;;16.80;6.10;;;;;;;-1.75;72.22;100974.09;5140273;56;1138459;-80
2021/03/08 04:27:15;;;;;;;15.58;6.10;;;;;;;-1.81;72.25;100979.80;5141165;56;1138528;-80
2021/03/08 04:32:22;;;;;;;31.60;10.30;;;;;;;-1.92;71.88;100983.48;5141003;56;1138597;-80
2021/03/08 04:37:30;;;;;;;40.37;12.23;;;;;;;-2.04;72.19;100985.02;5140476;57;1140588;-79
2021/03/08 04:42:37;;;;;;;31.40;9.70;;;;;;;-1.93;72.85;100993.44;5134902;56;1140493;-79
2021/03/08 04:47:45;;;;;;;17.32;6.65;;;;;;;-1.83;72.79;100997.11;5096072;56;1148142;-78
2021/03/08 04:52:55;;;;;;;11.80;5.80;;;;;;;-1.80;72.50;100995.77;5095495;56;1138393;-76
2021/03/08 04:58:01;;;;;;;10.60;4.87;;;;;;;-1.87;72.08;100995.92;5095808;56;1138630;-80
2021/03/08 05:03:07;;;;;;;16.00;5.73;;;;;;;-1.90;72.24;101004.61;5095519;56;1138433;-79
2021/03/08 05:08:15;;;;;;;9.70;5.40;;;;;;;-1.87;72.32;101001.97;5095742;56;1138509;-80
2021/03/08 05:13:23;;;;;;;14.53;5.73;;;;;;;-1.85;72.13;100998.91;5095424;56;1136367;-79
2021/03/08 05:18:31;;;;;;;8.27;5.50;;;;;;;-1.86;72.12;101002.38;5095401;56;1139308;-78
2021/03/08 05:23:36;;;;;;;9.73;5.50;;;;;;;-1.86;71.96;101004.97;5095530;56;1136388;-82
2021/03/08 05:28:42;;;;;;;10.20;5.10;;;;;;;-1.90;71.65;101015.42;5095638;56;1136753;-79
2021/03/08 05:33:53;;;;;;;11.83;5.17;;;;;;;-1.95;71.52;101021.12;5095541;56;1138626;-83
2021/03/08 05:38:59;;;;;;;15.40;7.00;;;;;;;-1.97;71.67;101021.58;5096085;56;1138878;-79
2021/03/08 05:44:08;;;;;;;11.03;5.13;;;;;;;-1.96;71.79;101032.37;5095774;56;1138545;-81
2021/03/08 05:49:25;;;;;;;15.87;7.47;;;;;;;-2.04;71.00;101035.11;5096054;56;1138540;-80
2021/03/08 05:55:08;;;;;;;13.47;7.07;;;;;;;-2.17;71.24;101047.44;5095823;56;1138532;-78
2021/03/08 06:00:33;;;;;;;12.97;6.07;;;;;;;-2.12;71.80;101043.45;5095966;56;1138533;-80
2021/03/08 06:06:03;;;;;;;12.60;7.30;;;;;;;-1.90;72.88;101052.56;5109432;56;1138912;-80
2021/03/08 06:11:12;;;;;;;16.70;8.50;;;;;;;-1.62;73.29;101057.23;5095835;56;1139164;-80
2021/03/08 06:16:23;;;;;;;21.57;10.93;;;;;;;-1.63;71.83;101058.97;5100735;56;1139137;-78
2021/03/08 06:21:28;;;;;;;49.60;21.23;;;;;;;-1.56;72.21;101068.36;5075722;56;1141204;-82
2021/03/08 06:26:35;;;;;;;57.23;25.10;;;;;;;-1.51;72.09;101087.70;5127159;56;1141135;-79
2021/03/08 06:31:42;;;;;;;59.53;28.50;;;;;;;-1.50;72.22;101090.27;5121691;56;1141022;-79
2021/03/08 06:36:48;;;;;;;64.07;25.65;;;;;;;-1.38;72.55;101096.98;5149440;56;1140749;-78
2021/03/08 06:41:54;;;;;;;38.57;16.13;;;;;;;-1.20;72.76;101105.68;5136721;56;1141014;-80
2021/03/08 06:47:01;;;;;;;51.27;16.77;;;;;;;-1.08;72.70;101109.80;5137910;56;1141037;-78
2021/03/08 06:52:13;;;;;;;36.93;14.27;;;;;;;-0.94;73.06;101115.99;5138438;56;1140753;-80
2021/03/08 06:57:31;;;;;;;36.63;16.33;;;;;;;-0.78;73.21;101126.47;5141216;56;1141055;-79
2021/03/08 07:02:46;;;;;;;121.30;51.43;;;;;;;-0.58;73.37;101135.11;5103747;56;1140824;-81
2021/03/08 07:08:01;;;;;;;108.63;45.08;;;;;;;-0.38;73.34;101145.48;5080059;56;1143426;-81
2021/03/08 07:13:12;;;;;;;127.53;45.60;;;;;;;-0.22;74.00;101150.33;5138772;56;1143075;-78
2021/03/08 07:18:21;;;;;;;57.80;23.07;;;;;;;-0.01;73.29;101148.53;5140179;56;1143101;-82
2021/03/08 07:23:28;;;;;;;204.57;63.67;;;;;;;0.21;73.45;101151.00;5127611;56;1140977;-81
2021/03/08 07:28:33;;;;;;;72.57;24.97;;;;;;;0.48;72.86;101152.48;5142755;56;1140945;-81
2021/03/08 07:33:39;;;;;;;26.10;9.73;;;;;;;0.61;73.04;101156.02;5113693;56;1138835;-83
2021/03/08 07:38:44;;;;;;;35.80;11.27;;;;;;;0.85;72.86;101155.82;5138944;56;1136837;-82
2021/03/08 07:43:54;;;;;;;25.30;9.28;;;;;;;1.02;73.01;101159.27;5135078;56;1138764;-78
2021/03/08 07:49:04;;;;;;;23.20;8.77;;;;;;;1.23;72.59;101162.53;5130498;56;1136811;-81
2021/03/08 07:54:10;;;;;;;41.80;12.47;;;;;;;1.25;71.43;101157.29;5128259;56;1136534;-80
2021/03/08 07:59:19;;;;;;;32.90;12.33;;;;;;;1.17;71.31;101151.45;5055783;56;1138715;-81
2021/03/08 08:04:24;;;;;;;28.30;9.67;;;;;;;1.29;71.59;101157.61;5144310;56;1139252;-81
2021/03/08 08:09:30;;;;;;;15.10;5.60;;;;;;;1.44;71.25;101167.58;5139660;56;1136854;-79
2021/03/08 08:14:42;;;;;;;17.27;7.17;;;;;;;1.59;69.93;101170.18;5130740;56;1136564;-79
2021/03/08 08:19:50;;;;;;;14.15;6.50;;;;;;;1.67;70.04;101177.34;5146270;56;1136505;-79
2021/03/08 08:24:58;;;;;;;20.95;8.40;;;;;;;1.91;69.97;101175.71;5144690;56;1136530;-79
2021/03/08 08:30:07;;;;;;;14.60;5.50;;;;;;;2.02;69.41;101182.28;5133507;56;1136385;-79
2021/03/08 08:35:24;;;;;;;71.07;27.43;;;;;;;2.28;68.40;101178.00;5147041;56;1136617;-79
2021/03/08 08:40:30;;;;;;;21.40;8.37;;;;;;;2.38;67.97;101174.17;5138723;56;1138390;-80
2021/03/08 08:45:35;;;;;;;11.47;5.67;;;;;;;2.56;66.98;101179.23;5066616;56;1136554;-82
2021/03/08 08:50:58;;;;;;;5.57;3.00;;;;;;;2.80;66.76;101177.92;5127241;56;1136882;-82
2021/03/08 08:56:06;;;;;;;6.90;3.53;;;;;;;3.03;66.85;101178.43;5146717;56;1134231;-79
2021/03/08 09:01:21;;;;;;;39.97;15.27;;;;;;;3.16;65.70;101177.53;5145033;56;1134214;-82
2021/03/08 09:06:55;;;;;;;32.67;13.87;;;;;;;3.21;65.10;101179.98;5144601;56;1138424;-80
2021/03/08 09:12:06;;;;;;;95.20;57.33;;;;;;;3.35;66.00;101188.16;5140661;56;1139138;-81
2021/03/08 09:17:30;;;;;;;23.50;13.27;;;;;;;3.63;65.59;101185.36;5146227;56;1138422;-81
2021/03/08 09:22:46;;;;;;;387.77;168.65;;;;;;;3.76;64.82;101186.13;5131986;56;1138826;-81
2021/03/08 09:27:52;;;;;;;321.14;152.66;;;;;;;3.72;60.15;101187.16;5135234;56;1142992;-81
2021/03/08 09:33:02;;;;;;;260.90;119.53;;;;;;;3.52;62.77;101194.44;5133470;56;1143189;-81
2021/03/08 09:38:12;;;;;;;195.30;91.23;;;;;;;3.66;64.05;101197.02;5142693;56;1143338;-81
2021/03/08 09:43:31;;;;;;;48.53;30.13;;;;;;;3.84;64.88;101197.14;5144136;56;1140938;-79
2021/03/08 09:48:39;;;;;;;24.37;8.50;;;;;;;4.06;63.25;101205.47;5113030;56;1138869;-80
2021/03/08 09:53:51;;;;;;;9.03;2.60;;;;;;;3.93;63.42;101214.27;5134361;56;1137276;-81
2021/03/08 09:59:08;;;;;;;6.37;2.70;;;;;;;4.05;60.93;101219.01;5139179;56;1134530;-82
2021/03/08 10:04:20;;;;;;;6.63;3.67;;;;;;;4.07;61.33;101216.33;5139197;56;1134844;-81
2021/03/08 10:09:26;;;;;;;5.72;3.27;;;;;;;3.97;59.57;101211.93;5093795;56;1134596;-81
2021/03/08 10:14:32;;;;;;;4.47;1.67;;;;;;;3.82;58.51;101216.42;5132097;56;1134880;-82
2021/03/08 10:19:39;;;;;;;4.37;2.40;;;;;;;4.06;55.31;101221.17;5124098;56;1134518;-80
2021/03/08 10:24:44;;;;;;;7.00;3.63;;;;;;;4.21;58.56;101233.66;5134511;56;1134230;-79
2021/03/08 10:29:53;;;;;;;7.80;3.60;;;;;;;4.40;59.70;101235.08;5146510;56;1134698;-83
2021/03/08 10:34:59;;;;;;;5.05;2.85;;;;;;;4.77;60.86;101233.08;5131969;56;1134633;-83
2021/03/08 10:40:06;;;;;;;5.97;2.53;;;;;;;4.73;56.71;101236.31;5123476;56;1134770;-81
2021/03/08 10:45:14;;;;;;;5.53;2.00;;;;;;;4.64;54.52;101243.23;5147571;56;1134819;-81
2021/03/08 10:50:19;;;;;;;13.00;4.53;;;;;;;4.59;48.89;101238.62;5149100;56;1134747;-80
2021/03/08 10:55:32;;;;;;;7.30;2.90;;;;;;;4.51;45.99;101242.03;5131011;56;1136848;-81
2021/03/08 11:00:40;;;;;;;2.63;1.20;;;;;;;4.71;47.63;101241.22;5146154;56;1134484;-81
2021/03/08 11:05:50;;;;;;;8.30;2.45;;;;;;;4.91;49.39;101254.31;5145158;56;1134480;-82
2021/03/08 11:10:56;;;;;;;13.07;4.47;;;;;;;5.07;49.78;101249.27;5136179;56;1135462;-80
2021/03/08 11:16:13;;;;;;;1.45;1.35;;;;;;;5.38;48.39;101246.16;5145726;56;1136560;-80
2021/03/08 11:21:33;;;;;;;18.40;6.33;;;;;;;5.52;43.45;101246.39;5030410;57;1134521;-80
2021/03/08 11:26:39;;;;;;;3.90;1.63;;;;;;;5.54;47.83;101248.03;5110313;56;1137008;-80
2021/03/08 11:31:54;;;;;;;4.80;1.32;;;;;;;5.72;48.76;101245.03;5125872;56;1134870;-79
2021/03/08 11:37:09;;;;;;;38.42;11.93;;;;;;;5.76;46.03;101252.31;5127137;56;1134754;-77
2021/03/08 11:42:17;;;;;;;34.67;13.80;;;;;;;5.89;46.92;101254.33;5133048;56;1138719;-79
2021/03/08 11:47:24;;;;;;;3.00;1.80;;;;;;;5.87;47.55;101250.03;5150781;56;1138618;-81
2021/03/08 11:52:29;;;;;;;7.83;2.40;;;;;;;6.13;46.64;101247.06;5133316;56;1134546;-79
2021/03/08 11:57:35;;;;;;;14.67;4.13;;;;;;;6.30;47.15;101249.73;5119837;56;1134372;-78
2021/03/08 12:02:41;;;;;;;6.85;1.98;;;;;;;6.46;45.99;101245.05;5129997;56;1136598;-79
2021/03/08 12:07:47;;;;;;;15.70;4.35;;;;;;;6.50;44.45;101246.61;5138126;56;1134607;-79
2021/03/08 12:12:52;;;;;;;10.68;3.87;;;;;;;6.27;45.00;101255.59;5142316;56;1136377;-79
2021/03/08 12:17:58;;;;;;;8.98;4.03;;;;;;;6.13;43.88;101252.77;5136734;56;1137136;-79
2021/03/08 12:23:03;;;;;;;11.70;4.27;;;;;;;6.03;44.60;101248.44;5130226;56;1134570;-80
2021/03/08 12:28:09;;;;;;;10.43;1.90;;;;;;;5.85;42.91;101237.44;5145787;56;1136341;-80
2021/03/08 12:33:15;;;;;;;6.40;2.10;;;;;;;5.50;40.98;101228.09;5146483;56;1136633;-82
2021/03/08 12:38:20;;;;;;;8.47;1.70;;;;;;;5.22;41.80;101231.09;5134639;56;1134421;-78
2021/03/08 12:43:26;;;;;;;3.50;1.50;;;;;;;5.09;41.12;101233.02;5137128;56;1134194;-77
2021/03/08 12:48:31;;;;;;;10.50;4.20;;;;;;;5.03;43.99;101227.60;5138096;56;1134661;-78
2021/03/08 12:53:37;;;;;;;2.10;1.30;;;;;;;4.95;44.20;101223.13;5143276;56;1136534;-80
2021/03/08 12:58:42;;;;;;;5.20;1.07;;;;;;;4.83;43.64;101227.14;5035496;57;1134573;-81
2021/03/08 13:03:48;;;;;;;3.50;1.80;;;;;;;4.78;43.95;101225.61;5106873;56;1138671;-81
2021/03/08 13:08:55;;;;;;;9.15;2.60;;;;;;;4.70;43.11;101233.81;5121072;56;1134556;-77
2021/03/08 13:14:00;;;;;;;3.08;1.47;;;;;;;4.60;44.66;101231.16;5122930;56;1134716;-79
2021/03/08 13:19:06;;;;;;;4.20;1.50;;;;;;;4.63;43.35;101236.28;5116895;56;1134849;-79
2021/03/08 13:24:12;;;;;;;7.40;1.47;;;;;;;4.90;45.89;101242.12;5109715;56;1134528;-80
2021/03/08 13:29:17;;;;;;;7.37;2.13;;;;;;;5.38;43.05;101233.89;5142164;56;1134453;-79
2021/03/08 13:34:23;;;;;;;2.43;1.30;;;;;;;5.38;41.66;101233.04;5117234;56;1134365;-77
2021/03/08 13:39:28;;;;;;;3.93;1.50;;;;;;;5.25;42.36;101240.61;5119522;56;1134825;-78
2021/03/08 13:44:34;;;;;;;1.90;1.37;;;;;;;4.93;42.69;101253.80;5121792;56;1134303;-77
2021/03/08 13:49:39;;;;;;;9.13;4.33;;;;;;;4.58;44.06;101253.98;5116029;56;1134540;-78
2021/03/08 13:54:45;;;;;;;4.93;1.80;;;;;;;4.31;45.66;101254.62;5118169;56;1134691;-80
2021/03/08 13:59:51;;;;;;;31.07;12.47;;;;;;;4.18;46.32;101261.26;5036655;58;1134396;-78
2021/03/08 14:04:56;;;;;;;18.25;8.35;;;;;;;4.25;47.76;101262.73;5036776;57;1138853;-84
2021/03/08 14:10:02;;;;;;;24.82;8.65;;;;;;;4.42;48.49;101259.45;5036882;58;1137194;-82
2021/03/08 14:15:09;;;;;;;14.57;6.73;;;;;;;4.51;48.51;101259.91;5037008;57;1136762;-82
2021/03/08 14:20:16;;;;;;;4.13;2.57;;;;;;;4.62;48.12;101259.92;5036968;58;1136331;-79
2021/03/08 14:25:21;;;;;;;51.17;38.00;;;;;;;4.53;47.21;101260.70;5037194;57;1134252;-84
2021/03/08 14:30:27;;;;;;;7.60;3.00;;;;;;;4.48;47.14;101259.17;5036366;57;1138783;-84
2021/03/08 14:35:33;;;;;;;21.67;11.33;;;;;;;4.37;46.81;101258.31;5040508;57;1134468;-84
2021/03/08 14:40:38;;;;;;;22.60;11.93;;;;;;;4.45;47.64;101256.22;5120056;56;1138895;-87
2021/03/08 14:45:44;;;;;;;13.20;4.53;;;;;;;4.73;47.38;101247.25;5123227;56;1138565;-80
2021/03/08 14:50:49;;;;;;;9.53;3.80;;;;;;;4.90;47.95;101241.67;5133741;56;1136340;-82
2021/03/08 14:55:55;;;;;;;18.20;6.75;;;;;;;4.93;48.44;101244.63;5096152;56;1134538;-80
2021/03/08 15:01:00;;;;;;;4.47;1.85;;;;;;;5.11;48.37;101239.05;5125905;56;1137197;-81
2021/03/08 15:06:07;;;;;;;31.55;11.20;;;;;;;5.21;44.39;101233.78;5063731;56;1134657;-82
2021/03/08 15:11:12;;;;;;;14.27;5.93;;;;;;;4.96;45.79;101243.19;5143438;56;1138726;-80
2021/03/08 15:16:18;;;;;;;31.80;11.47;;;;;;;4.71;47.08;101246.00;5133859;56;1136700;-78
2021/03/08 15:21:24;;;;;;;45.80;17.80;;;;;;;4.60;47.43;101250.36;5076311;56;1138593;-79
2021/03/08 15:26:29;;;;;;;22.67;6.50;;;;;;;4.54;48.16;101254.55;5075688;57;1138623;-79
2021/03/08 15:31:35;;;;;;;18.60;4.53;;;;;;;4.51;48.22;101250.75;4981898;58;1136848;-79
2021/03/08 15:36:40;;;;;;;25.97;11.30;;;;;;;4.40;47.69;101257.34;5075850;57;1137172;-78
2021/03/08 15:41:46;;;;;;;22.93;9.13;;;;;;;4.29;47.84;101260.82;5075267;57;1138919;-78
2021/03/08 15:46:53;;;;;;;31.87;10.67;;;;;;;4.22;48.22;101257.61;4988848;57;1137191;-78
2021/03/08 15:51:59;;;;;;;21.00;9.35;;;;;;;4.22;48.21;101266.77;5160558;56;1139641;-80
2021/03/08 15:57:07;;;;;;;14.90;6.60;;;;;;;4.23;48.80;101262.80;5160505;56;1137307;-79
2021/03/08 16:02:12;;;;;;;27.60;11.43;;;;;;;4.22;48.83;101267.63;5160861;56;1136794;-78
2021/03/08 16:07:18;;;;;;;31.13;10.30;;;;;;;4.50;48.77;101266.06;5160690;56;1138409;-80
2021/03/08 16:12:25;;;;;;;57.33;19.57;;;;;;;4.78;49.09;101268.85;5160994;56;1138347;-79
2021/03/08 16:17:31;;;;;;;72.87;29.97;;;;;;;4.78;48.85;101268.39;5161036;56;1138530;-77
2021/03/08 16:22:36;;;;;;;78.57;30.20;;;;;;;5.57;48.88;101268.89;5161247;56;1138790;-78
2021/03/08 16:27:43;;;;;;;79.40;31.07;;;;;;;5.42;48.30;101265.63;5161028;56;1138405;-79
2021/03/08 16:32:48;;;;;;;83.87;32.50;;;;;;;5.08;48.35;101276.73;5143684;56;1138424;-84
2021/03/08 16:37:54;;;;;;;104.13;37.97;;;;;;;4.79;48.51;101281.05;5126594;56;1138802;-78
2021/03/08 16:43:00;;;;;;;104.27;43.60;;;;;;;4.60;49.12;101288.34;5132490;56;1140715;-78
2021/03/08 16:48:06;;;;;;;105.10;41.13;;;;;;;4.48;49.63;101292.77;5137795;56;1149551;-81
2021/03/08 16:53:12;;;;;;;131.00;52.93;;;;;;;4.32;49.59;101293.44;5138356;56;1141185;-80
2021/03/08 16:58:18;;;;;;;77.80;29.33;;;;;;;4.18;49.90;101303.14;5161306;56;1140602;-81
2021/03/08 17:03:24;;;;;;;57.30;22.83;;;;;;;3.80;49.00;101302.84;5161136;56;1138550;-81
2021/03/08 17:08:29;;;;;;;60.63;23.77;;;;;;;3.37;49.07;101313.12;5160162;56;1138579;-79
2021/03/08 17:13:35;;;;;;;74.27;27.40;;;;;;;3.20;50.04;101318.97;5143077;56;1138645;-80
2021/03/08 17:18:40;;;;;;;88.53;32.73;;;;;;;3.18;50.90;101326.00;5145649;56;1138606;-81
2021/03/08 17:23:46;;;;;;;120.83;42.27;;;;;;;3.21;51.58;101325.05;5145411;56;1138561;-79
2021/03/08 17:28:52;;;;;;;300.55;84.90;;;;;;;3.20;52.19;101333.34;5148309;56;1140585;-79
2021/03/08 17:33:58;;;;;;;265.70;85.03;;;;;;;3.15;52.18;101338.72;5138553;56;1141159;-80
2021/03/08 17:39:04;;;;;;;341.20;96.30;;;;;;;3.08;52.23;101341.58;5150310;56;1140700;-80
2021/03/08 17:44:09;;;;;;;331.45;101.47;;;;;;;2.92;52.56;101349.52;5150611;56;1140950;-77
2021/03/08 17:49:15;;;;;;;323.13;100.93;;;;;;;2.85;52.99;101355.86;5149995;56;1142656;-79
2021/03/08 17:54:21;;;;;;;382.33;132.10;;;;;;;2.77;53.19;101350.87;5150180;56;1142598;-78
2021/03/08 17:59:27;;;;;;;383.40;127.73;;;;;;;2.72;53.85;101358.02;5150194;56;1142797;-80
2021/03/08 18:04:33;;;;;;;398.10;131.33;;;;;;;2.63;53.99;101360.45;5150159;56;1142775;-78
2021/03/08 18:09:41;;;;;;;358.60;112.37;;;;;;;2.57;54.04;101356.75;5150274;56;1142803;-77
2021/03/08 18:14:46;;;;;;;325.47;101.37;;;;;;;2.48;54.04;101363.54;5150218;56;1143094;-78
2021/03/08 18:19:53;;;;;;;303.25;98.00;;;;;;;2.41;54.41;101358.98;5141117;56;1143309;-79
2021/03/08 18:24:59;;;;;;;394.33;128.80;;;;;;;2.36;54.47;101359.55;5139190;56;1141366;-80
2021/03/08 18:30:07;;;;;;;470.63;160.13;;;;;;;2.31;54.47;101357.97;5150733;56;1143463;-80
2021/03/08 18:35:13;;;;;;;446.90;140.27;;;;;;;2.24;54.48;101362.54;5150356;56;1143089;-79
2021/03/08 18:40:19;;;;;;;437.10;154.13;;;;;;;1.99;53.95;101364.14;5150097;56;1142553;-84
2021/03/08 18:45:24;;;;;;;502.97;186.70;;;;;;;1.78;54.51;101366.92;5154462;56;1142616;-78
2021/03/08 18:50:30;;;;;;;437.47;152.43;;;;;;;1.79;54.96;101378.21;5160208;56;1142578;-79
2021/03/08 18:55:35;;;;;;;291.57;103.35;;;;;;;1.81;55.20;101372.50;5159942;56;1142739;-79
2021/03/08 19:00:41;;;;;;;236.10;88.90;;;;;;;1.39;54.54;101374.05;5159875;56;1142819;-78
2021/03/08 19:05:46;;;;;;;211.57;81.80;;;;;;;1.07;55.23;101378.77;5160032;56;1140713;-78
2021/03/08 19:10:52;;;;;;;230.27;82.43;;;;;;;1.13;56.30;101383.84;5159510;56;1140662;-78
2021/03/08 19:15:57;;;;;;;293.87;99.03;;;;;;;1.14;56.37;101388.16;5159290;55;1145589;-80
2021/03/08 19:21:03;;;;;;;490.43;167.90;;;;;;;0.95;56.45;101389.50;5159035;56;1140929;-79
2021/03/08 19:26:09;;;;;;;417.20;125.97;;;;;;;1.02;57.27;101391.08;5159606;56;1143097;-78
2021/03/08 19:31:14;;;;;;;177.87;64.90;;;;;;;1.10;57.57;101390.42;5159664;56;1142674;-80
2021/03/08 19:36:20;;;;;;;218.63;77.47;;;;;;;1.16;57.31;101390.28;5159523;56;1140550;-80
2021/03/08 19:41:27;;;;;;;267.13;93.40;;;;;;;1.18;57.25;101395.46;5149865;56;1140510;-79
2021/03/08 19:46:33;;;;;;;196.30;70.93;;;;;;;1.15;57.18;101398.99;5149943;56;1141015;-81
2021/03/08 19:51:39;;;;;;;183.53;68.97;;;;;;;1.14;57.37;101401.63;5150152;56;1141013;-77
2021/03/08 19:56:44;;;;;;;213.03;72.27;;;;;;;1.10;57.24;101401.29;5150008;56;1141020;-79
2021/03/08 20:01:50;;;;;;;214.83;75.03;;;;;;;1.05;57.32;101407.94;5149905;56;1141035;-78
2021/03/08 20:06:56;;;;;;;228.15;79.25;;;;;;;0.99;57.69;101408.93;5152998;56;1140924;-77
2021/03/08 20:12:01;;;;;;;280.77;88.72;;;;;;;0.90;57.85;101393.53;5108787;56;1140795;-79
2021/03/08 20:17:08;;;;;;;254.73;80.80;;;;;;;0.91;58.07;101410.88;5121038;56;1140707;-81
2021/03/08 20:22:13;;;;;;;252.03;82.50;;;;;;;0.91;58.07;101409.57;5121116;56;1140960;-80
2021/03/08 20:27:19;;;;;;;244.67;84.03;;;;;;;0.68;57.50;101407.93;5122706;56;1140453;-77
2021/03/08 20:32:24;;;;;;;232.87;79.57;;;;;;;0.59;58.16;101415.52;5101391;56;1141343;-76
2021/03/08 20:37:30;;;;;;;253.27;83.43;;;;;;;0.57;58.49;101417.73;5133781;56;1140613;-76
2021/03/08 20:42:36;;;;;;;250.30;88.50;;;;;;;0.58;58.57;101407.73;5123464;56;1141146;-77
2021/03/08 20:47:45;;;;;;;355.13;110.93;;;;;;;0.58;58.69;101407.73;5137920;56;1140785;-79
2021/03/08 20:52:51;;;;;;;383.80;128.80;;;;;;;0.46;58.89;101408.02;5150460;56;1143305;-78
2021/03/08 20:57:57;;;;;;;329.97;118.43;;;;;;;0.46;58.89;101408.02;5131465;56;1143107;-79
2021/03/08 21:03:02;;;;;;;283.73;98.87;;;;;;;0.40;58.78;101402.92;5082282;56;1143123;-79
2021/03/08 21:08:08;;;;;;;255.00;87.42;;;;;;;0.37;58.94;101402.98;5072932;56;1141036;-76
2021/03/08 21:13:14;;;;;;;270.27;89.40;;;;;;;0.32;59.13;101400.03;5138450;56;1140996;-77
2021/03/08 21:18:19;;;;;;;239.30;84.90;;;;;;;0.14;59.01;101395.69;5144134;56;1140904;-76
2021/03/08 21:23:25;;;;;;;248.63;87.97;;;;;;;0.14;59.01;101395.69;5128219;56;1141300;-77
2021/03/08 21:28:31;;;;;;;212.70;78.43;;;;;;;0.14;59.48;101401.75;5131495;56;1141248;-77
2021/03/08 21:33:36;;;;;;;231.13;87.67;;;;;;;0.10;59.46;101405.29;5048372;56;1141241;-77
2021/03/08 21:38:42;;;;;;;219.33;80.10;;;;;;;0.00;59.28;101410.27;5143628;56;1141031;-77
2021/03/08 21:43:47;;;;;;;223.67;80.97;;;;;;;-0.36;58.82;101419.18;5081799;56;1141272;-77
2021/03/08 21:48:54;;;;;;;207.57;76.07;;;;;;;-0.53;59.69;101413.42;5068801;56;1143012;-76
2021/03/08 21:53:59;;;;;;;194.77;71.75;;;;;;;-0.47;60.28;101411.17;5119972;56;1143156;-76
2021/03/08 21:59:05;;;;;;;181.15;65.17;;;;;;;-0.43;60.54;101413.66;5123461;56;1143103;-76
2021/03/08 22:04:12;;;;;;;213.18;73.40;;;;;;;-0.44;60.40;101417.14;5131757;56;1142825;-77
2021/03/08 22:09:17;;;;;;;195.80;68.87;;;;;;;-0.50;60.07;101422.47;5120904;56;1143284;-77
2021/03/08 22:14:23;;;;;;;216.67;79.23;;;;;;;-0.50;60.56;101415.97;5138619;56;1143037;-77
2021/03/08 22:19:28;;;;;;;228.37;79.60;;;;;;;-0.52;60.46;101415.14;5149714;56;1142706;-77
2021/03/08 22:24:34;;;;;;;232.10;78.90;;;;;;;-0.67;60.25;101423.64;5149870;56;1142758;-76
2021/03/08 22:29:40;;;;;;;223.00;79.17;;;;;;;-0.75;60.40;101423.31;5146593;56;1142718;-77
2021/03/08 22:34:45;;;;;;;240.20;83.23;;;;;;;-0.77;60.91;101417.75;5149745;56;1143130;-76
2021/03/08 22:39:51;;;;;;;317.03;109.13;;;;;;;-0.75;61.04;101421.16;5149588;56;1143452;-77
2021/03/08 22:44:56;;;;;;;297.70;103.37;;;;;;;-0.77;61.04;101421.21;5149743;56;1145208;-76
2021/03/08 22:50:03;;;;;;;315.27;108.33;;;;;;;-0.76;61.11;101417.70;5149895;56;1153453;-77
2021/03/08 22:55:10;;;;;;;326.32;108.95;;;;;;;-0.77;60.99;101420.35;5149840;56;1145178;-76
2021/03/08 23:00:19;;;;;;;335.23;109.27;;;;;;;-0.78;61.21;101417.34;5149742;56;1144760;-76
2021/03/08 23:05:25;;;;;;;349.63;118.00;;;;;;;-0.78;61.11;101422.09;5145819;56;1144686;-76